Time;durP1;ratioP1;P1;durP2;ratioP2;P2;SDS_P1;SDS_P2;PMS_P1;PMS_P2;Temp;Humidity;BMP_temperature;BMP_pressure;BME280_temperature;BME280_humidity;BME280_pressure;Samples;Min_cycle;Max_cycle;Signal;HPM_P1;HPM_P2
2021/10/04 00:01:35;;;;;;;3.40;3.10;;;;;;;15.27;86.62;99288.34;5078953;28;20201;-77
2021/10/04 00:04:02;;;;;;;3.55;3.25;;;;;;;15.18;87.08;99279.94;5079769;28;20278;-77
2021/10/04 00:06:29;;;;;;;5.28;4.20;;;;;;;15.19;87.03;99286.22;5074845;28;20194;-76
2021/10/04 00:08:56;;;;;;;5.30;4.20;;;;;;;15.20;86.64;99285.25;5078892;28;20200;-78
2021/10/04 00:11:25;;;;;;;4.43;4.00;;;;;;;15.11;87.25;99284.16;5075741;28;20310;-78
2021/10/04 00:13:52;;;;;;;5.18;3.50;;;;;;;15.05;88.09;99276.53;5078331;28;20196;-78
2021/10/04 00:16:20;;;;;;;3.83;3.53;;;;;;;14.91;89.01;99274.94;5082004;28;20200;-77
2021/10/04 00:18:47;;;;;;;3.55;3.05;;;;;;;14.94;89.62;99271.09;5078721;28;20286;-78
2021/10/04 00:21:13;;;;;;;4.05;3.60;;;;;;;14.94;88.86;99271.97;5074640;28;20200;-76
2021/10/04 00:23:40;;;;;;;3.53;3.22;;;;;;;14.98;89.08;99275.31;5075734;28;20210;-76
2021/10/04 00:26:07;;;;;;;3.67;3.33;;;;;;;14.99;88.51;99279.72;5078275;28;20225;-77
2021/10/04 00:28:33;;;;;;;4.80;4.35;;;;;;;15.07;88.09;99273.69;5074186;28;20227;-77
2021/10/04 00:31:00;;;;;;;3.22;2.92;;;;;;;14.96;88.71;99271.84;5079325;28;20279;-76
2021/10/04 00:33:28;;;;;;;3.92;3.55;;;;;;;14.82;89.76;99277.53;5078598;28;20626;-77
2021/10/04 00:35:55;;;;;;;3.45;3.15;;;;;;;14.85;90.10;99277.28;5078742;28;20300;-76
2021/10/04 00:38:22;;;;;;;3.80;3.50;;;;;;;14.92;89.70;99286.63;5079501;28;20192;-77
2021/10/04 00:40:49;;;;;;;4.15;3.75;;;;;;;15.04;88.51;99284.75;5076491;28;20188;-76
2021/10/04 00:43:16;;;;;;;5.07;4.10;;;;;;;15.22;87.14;99297.69;5087025;28;20223;-78
2021/10/04 00:45:42;;;;;;;5.18;4.63;;;;;;;14.89;88.61;99298.59;5082406;28;20998;-77
2021/10/04 00:48:09;;;;;;;5.50;5.00;;;;;;;14.83;89.52;99292.81;5080045;28;20219;-77
2021/10/04 00:50:37;;;;;;;4.40;4.00;;;;;;;14.86;90.31;99308.84;5076151;28;20283;-77
2021/10/04 00:53:04;;;;;;;5.63;4.70;;;;;;;14.89;90.51;99311.28;5076668;28;20188;-78
2021/10/04 00:55:30;;;;;;;5.28;4.78;;;;;;;14.91;90.06;99312.03;5076248;28;20203;-76
2021/10/04 00:57:58;;;;;;;6.38;5.28;;;;;;;15.07;88.26;99306.22;5076991;28;20188;-76
2021/10/04 01:00:27;;;;;;;5.00;4.50;;;;;;;15.04;87.40;99288.38;5075293;28;20191;-76
2021/10/04 01:02:54;;;;;;;4.95;4.45;;;;;;;14.97;88.00;99290.72;5077161;28;20205;-77
2021/10/04 01:05:21;;;;;;;5.40;4.90;;;;;;;15.00;87.35;99292.31;5077054;28;20223;-78
2021/10/04 01:07:50;;;;;;;5.53;5.00;;;;;;;14.90;88.33;99299.44;5077744;28;20204;-77
2021/10/04 01:10:18;;;;;;;5.43;4.85;;;;;;;14.82;89.18;99302.78;5068010;28;20202;-78
2021/10/04 01:12:46;;;;;;;5.28;4.80;;;;;;;14.79;89.68;99305.75;5078811;28;20611;-77
2021/10/04 01:15:14;;;;;;;5.03;4.47;;;;;;;14.85;89.93;99312.50;5076022;28;20192;-77
2021/10/04 01:17:41;;;;;;;5.90;5.28;;;;;;;14.74;90.46;99295.28;5075585;28;20554;-75
2021/10/04 01:20:12;;;;;;;7.00;5.00;;;;;;;14.84;89.45;99273.72;5075680;28;20645;-76
2021/10/04 01:22:39;;;;;;;5.80;4.90;;;;;;;14.93;88.72;99270.25;5076573;28;20579;-77
2021/10/04 01:25:08;;;;;;;5.20;4.53;;;;;;;14.82;89.05;99281.09;5076869;28;20557;-77
2021/10/04 01:27:35;;;;;;;5.60;5.10;;;;;;;14.66;90.17;99302.31;5079665;28;20211;-77
2021/10/04 01:30:02;;;;;;;5.03;4.55;;;;;;;14.73;90.42;99304.38;5080676;28;20208;-77
2021/10/04 01:32:28;;;;;;;5.22;4.70;;;;;;;14.62;90.08;99292.69;5077982;28;20263;-77
2021/10/04 01:34:56;;;;;;;8.40;5.18;;;;;;;14.69;89.52;99270.38;5074270;28;20278;-75
2021/10/04 01:37:24;;;;;;;4.65;4.18;;;;;;;14.58;91.13;99292.06;5075971;28;20191;-77
2021/10/04 01:39:51;;;;;;;5.30;4.80;;;;;;;14.75;89.97;99294.28;5076322;28;20197;-76
2021/10/04 01:42:18;;;;;;;5.63;3.60;;;;;;;14.82;88.91;99291.09;5076427;28;20221;-76
2021/10/04 01:44:45;;;;;;;4.32;3.92;;;;;;;14.74;89.34;99291.69;5077050;28;20195;-77
2021/10/04 01:47:11;;;;;;;4.32;3.85;;;;;;;14.77;89.40;99289.59;5077035;28;20277;-77
2021/10/04 01:49:38;;;;;;;5.45;3.50;;;;;;;14.69;89.88;99283.06;5076360;28;20192;-77
2021/10/04 01:52:05;;;;;;;4.63;4.18;;;;;;;14.80;88.92;99283.94;5068981;28;20201;-78
2021/10/04 01:54:33;;;;;;;4.10;3.70;;;;;;;14.82;88.44;99286.53;5075807;28;20269;-77
2021/10/04 01:57:00;;;;;;;3.67;3.17;;;;;;;14.68;89.80;99294.91;5069419;28;20193;-77
2021/10/04 01:59:26;;;;;;;4.15;3.63;;;;;;;14.50;90.58;99302.63;5077342;28;20204;-77
2021/10/04 02:01:53;;;;;;;2.38;2.17;;;;;;;14.58;90.05;99308.31;5077352;28;20192;-77
2021/10/04 02:04:19;;;;;;;4.18;2.50;;;;;;;14.52;90.28;99306.94;5079081;28;20197;-77
2021/10/04 02:06:49;;;;;;;2.50;2.30;;;;;;;14.60;90.31;99304.50;5075920;28;20182;-77
2021/10/04 02:09:16;;;;;;;3.75;2.70;;;;;;;14.66;89.57;99297.75;5076582;28;20249;-79
2021/10/04 02:11:45;;;;;;;2.80;2.60;;;;;;;14.77;88.53;99319.41;5075531;28;20651;-78
2021/10/04 02:14:12;;;;;;;2.80;2.30;;;;;;;14.79;88.02;99320.16;5076389;28;20188;-77
2021/10/04 02:16:39;;;;;;;4.15;2.38;;;;;;;14.71;88.23;99316.34;5074061;28;20222;-76
2021/10/04 02:19:06;;;;;;;2.67;2.47;;;;;;;14.62;88.79;99323.34;5075793;28;20188;-76
2021/10/04 02:21:33;;;;;;;2.65;2.45;;;;;;;14.57;88.77;99328.28;5074913;28;20191;-77
2021/10/04 02:23:59;;;;;;;4.13;3.65;;;;;;;14.54;88.36;99325.75;5076483;28;20297;-77
2021/10/04 02:26:26;;;;;;;3.63;2.90;;;;;;;14.41;89.82;99312.34;5075190;28;20191;-77
2021/10/04 02:28:54;;;;;;;3.50;2.75;;;;;;;14.60;89.18;99322.59;5075770;28;20685;-77
2021/10/04 02:31:21;;;;;;;3.33;2.72;;;;;;;14.51;89.33;99315.16;5078038;28;20202;-77
2021/10/04 02:33:47;;;;;;;3.10;2.80;;;;;;;14.66;88.80;99327.53;5077660;28;20701;-77
2021/10/04 02:36:21;;;;;;;3.58;3.28;;;;;;;14.41;89.85;99331.28;5074791;28;20191;-77
2021/10/04 02:38:48;;;;;;;4.43;3.40;;;;;;;14.51;89.54;99326.00;5075157;28;20190;-76
2021/10/04 02:41:14;;;;;;;4.10;3.70;;;;;;;14.54;89.00;99331.16;5076003;28;20190;-77
2021/10/04 02:43:41;;;;;;;3.88;3.47;;;;;;;14.63;88.73;99335.94;5070616;28;20672;-77
2021/10/04 02:46:09;;;;;;;4.50;3.22;;;;;;;14.74;87.38;99344.06;5078372;28;20214;-78
2021/10/04 02:48:36;;;;;;;3.90;3.60;;;;;;;14.66;88.23;99346.50;5075235;28;20226;-76
2021/10/04 02:51:03;;;;;;;4.72;3.65;;;;;;;14.66;88.10;99351.94;5073712;28;20206;-76
2021/10/04 02:53:30;;;;;;;4.47;4.03;;;;;;;14.54;89.60;99352.84;5073071;28;20523;-76
2021/10/04 02:55:56;;;;;;;7.25;5.13;;;;;;;14.53;88.75;99357.41;5075974;28;20200;-77
2021/10/04 02:58:23;;;;;;;6.43;5.25;;;;;;;14.54;88.81;99347.44;5074750;28;20195;-76
2021/10/04 03:00:49;;;;;;;7.03;4.90;;;;;;;14.63;88.55;99340.47;5074057;28;20203;-77
2021/10/04 03:03:17;;;;;;;5.18;4.15;;;;;;;14.57;88.79;99333.69;5075669;28;20273;-77
2021/10/04 03:05:44;;;;;;;6.25;4.45;;;;;;;14.57;88.84;99336.41;5067161;28;20189;-78
2021/10/04 03:08:11;;;;;;;7.55;4.55;;;;;;;14.68;88.03;99335.56;5077086;28;20222;-77
2021/10/04 03:10:37;;;;;;;5.60;4.43;;;;;;;14.58;88.97;99332.69;5077427;28;20306;-77
2021/10/04 03:13:04;;;;;;;5.22;4.50;;;;;;;14.66;88.70;99329.41;5080248;28;20322;-78
2021/10/04 03:15:31;;;;;;;6.30;4.32;;;;;;;14.56;89.50;99329.25;5075397;28;20461;-77
2021/10/04 03:17:58;;;;;;;7.88;4.50;;;;;;;14.30;90.68;99334.84;5075950;28;20227;-77
2021/10/04 03:20:26;;;;;;;4.68;4.20;;;;;;;14.48;90.78;99337.94;5075134;28;20186;-77
2021/10/04 03:22:54;;;;;;;4.55;4.15;;;;;;;14.45;90.56;99329.19;5075111;28;20199;-78
2021/10/04 03:25:21;;;;;;;3.65;3.10;;;;;;;14.61;89.86;99332.47;5077079;28;20625;-77
2021/10/04 03:27:47;;;;;;;6.15;3.53;;;;;;;14.68;88.32;99332.84;5075580;28;20266;-76
2021/10/04 03:30:14;;;;;;;4.57;4.18;;;;;;;14.78;87.15;99321.13;5073515;28;20283;-78
2021/10/04 03:32:41;;;;;;;4.03;3.35;;;;;;;14.74;87.99;99318.78;5076889;28;20278;-78
2021/10/04 03:35:09;;;;;;;4.00;3.13;;;;;;;14.85;87.27;99334.19;5076684;28;20191;-76
2021/10/04 03:37:37;;;;;;;3.80;3.40;;;;;;;14.85;86.74;99336.91;5082076;28;20195;-76
2021/10/04 03:40:05;;;;;;;3.75;3.25;;;;;;;14.59;88.47;99340.72;5088365;28;20685;-77
2021/10/04 03:42:32;;;;;;;4.00;3.60;;;;;;;14.63;88.84;99345.88;5085469;28;20550;-76
2021/10/04 03:44:59;;;;;;;4.38;3.97;;;;;;;14.64;88.66;99348.47;5075921;28;20583;-77
2021/10/04 03:47:26;;;;;;;7.03;3.70;;;;;;;14.61;88.72;99346.03;5078676;28;20200;-77
2021/10/04 03:49:52;;;;;;;5.00;3.97;;;;;;;14.61;88.58;99348.72;5074242;28;20306;-77
2021/10/04 03:52:19;;;;;;;5.65;4.20;;;;;;;14.54;89.76;99345.63;5076160;28;20211;-77
2021/10/04 03:54:47;;;;;;;6.80;4.53;;;;;;;14.43;90.61;99342.03;5076048;28;20290;-77
2021/10/04 03:57:14;;;;;;;5.85;4.13;;;;;;;14.48;90.99;99348.78;5075353;28;20187;-76
2021/10/04 03:59:40;;;;;;;5.90;4.20;;;;;;;14.58;89.70;99348.94;5075468;28;20251;-77
2021/10/04 04:02:07;;;;;;;6.50;4.28;;;;;;;14.54;89.74;99350.13;5075576;28;20209;-77
2021/10/04 04:04:34;;;;;;;4.00;3.60;;;;;;;14.54;89.86;99353.75;5073831;28;20539;-77
2021/10/04 04:07:00;;;;;;;7.50;4.63;;;;;;;14.36;92.20;99358.75;5073093;28;20263;-77
2021/10/04 04:09:27;;;;;;;4.00;3.60;;;;;;;14.46;92.59;99364.28;5070474;28;20217;-76
2021/10/04 04:11:55;;;;;;;4.30;3.78;;;;;;;14.44;92.16;99359.97;5071458;28;20199;-77
2021/10/04 04:14:22;;;;;;;5.25;4.72;;;;;;;14.57;91.31;99377.03;5073882;28;20286;-77
2021/10/04 04:16:48;;;;;;;4.30;3.70;;;;;;;14.48;92.25;99383.16;5074602;28;20191;-77
2021/10/04 04:19:15;;;;;;;4.90;4.50;;;;;;;14.48;92.01;99383.16;5077673;28;20192;-77
2021/10/04 04:21:42;;;;;;;4.30;3.90;;;;;;;14.35;93.31;99381.38;5076264;28;20289;-77
2021/10/04 04:24:09;;;;;;;11.82;5.00;;;;;;;14.37;92.22;99376.69;5076414;28;20544;-78
2021/10/04 04:26:35;;;;;;;5.70;4.60;;;;;;;14.26;94.06;99378.53;5078437;28;20199;-77
2021/10/04 04:29:04;;;;;;;5.45;4.70;;;;;;;14.27;94.53;99391.94;5077825;28;20230;-77
2021/10/04 04:31:31;;;;;;;5.85;4.68;;;;;;;14.28;94.34;99369.28;5076747;28;20191;-77
2021/10/04 04:33:57;;;;;;;6.20;5.60;;;;;;;14.35;92.92;99396.75;5077129;28;20205;-77
2021/10/04 04:36:24;;;;;;;5.65;5.07;;;;;;;14.34;93.54;99400.47;5077340;28;20659;-77
2021/10/04 04:38:50;;;;;;;7.10;4.95;;;;;;;14.31;93.62;99406.09;5077415;28;20193;-77
2021/10/04 04:41:18;;;;;;;6.97;4.72;;;;;;;14.43;93.21;99417.88;5079053;28;20210;-77
2021/10/04 04:43:45;;;;;;;5.30;4.80;;;;;;;14.49;91.32;99411.94;5084991;28;20231;-78
2021/10/04 04:46:13;;;;;;;5.53;4.65;;;;;;;14.27;93.01;99405.50;5085878;28;20258;-76
2021/10/04 04:48:39;;;;;;;5.32;4.55;;;;;;;14.34;93.28;99417.56;5083892;28;20283;-75
2021/10/04 04:51:06;;;;;;;5.28;3.97;;;;;;;14.30;94.04;99416.06;5081484;28;20208;-76
2021/10/04 04:53:33;;;;;;;4.03;3.70;;;;;;;14.29;93.75;99413.47;5084238;28;20278;-76
2021/10/04 04:55:59;;;;;;;3.92;3.53;;;;;;;14.42;93.01;99418.81;5082579;28;20255;-76
2021/10/04 04:58:26;;;;;;;4.60;4.18;;;;;;;14.41;92.44;99431.50;5085020;28;20556;-78
2021/10/04 05:00:52;;;;;;;4.80;4.30;;;;;;;14.38;92.75;99429.91;5081870;28;20974;-77
2021/10/04 05:03:20;;;;;;;7.95;6.18;;;;;;;14.30;93.36;99423.34;5058327;28;20206;-77
2021/10/04 05:05:47;;;;;;;18.52;11.82;;;;;;;14.25;94.32;99430.97;5054200;28;20207;-76
2021/10/04 05:08:13;;;;;;;15.95;12.52;;;;;;;14.37;93.83;99440.84;5054020;28;20202;-77
2021/10/04 05:10:40;;;;;;;27.13;21.20;;;;;;;14.29;94.09;99449.56;5055102;28;20191;-77
2021/10/04 05:13:07;;;;;;;25.05;17.92;;;;;;;14.28;93.87;99449.69;5068726;28;20229;-76
2021/10/04 05:15:35;;;;;;;23.85;15.23;;;;;;;14.48;92.07;99464.41;5082496;28;20186;-77
2021/10/04 05:18:01;;;;;;;17.77;10.85;;;;;;;14.52;91.60;99468.63;5083830;28;20202;-76
2021/10/04 05:20:29;;;;;;;26.65;16.80;;;;;;;14.43;93.02;99469.31;5085807;28;20270;-77
2021/10/04 05:22:56;;;;;;;23.67;15.30;;;;;;;14.41;93.40;99476.72;5084586;28;20204;-78
2021/10/04 05:25:23;;;;;;;13.73;10.85;;;;;;;14.49;92.67;99485.09;5084092;28;20198;-78
2021/10/04 05:27:49;;;;;;;15.93;11.45;;;;;;;14.48;92.48;99480.66;5083144;28;20204;-78
2021/10/04 05:30:16;;;;;;;12.00;8.50;;;;;;;14.47;92.78;99487.06;5084419;28;20210;-77
2021/10/04 05:32:42;;;;;;;12.18;9.10;;;;;;;14.46;92.84;99482.63;5082794;28;20296;-77
2021/10/04 05:35:11;;;;;;;10.38;8.88;;;;;;;14.53;92.56;99473.03;5083232;28;20305;-78
2021/10/04 05:37:39;;;;;;;8.07;6.30;;;;;;;14.52;92.56;99463.19;5091269;28;20233;-76
2021/10/04 05:40:07;;;;;;;9.40;7.32;;;;;;;14.59;91.64;99464.50;5115227;28;20200;-77
2021/10/04 05:42:34;;;;;;;8.95;6.80;;;;;;;14.56;91.08;99464.69;5114873;28;20525;-79
2021/10/04 05:45:01;;;;;;;9.02;7.05;;;;;;;14.51;91.61;99461.47;5114687;28;20185;-77
2021/10/04 05:47:28;;;;;;;8.65;6.55;;;;;;;14.50;91.76;99459.75;5114175;28;20198;-77
2021/10/04 05:49:55;;;;;;;9.15;7.30;;;;;;;14.50;91.84;99468.72;5111110;27;20238;-77
2021/10/04 05:52:22;;;;;;;7.80;6.82;;;;;;;14.44;92.59;99476.47;5118252;27;20265;-75
2021/10/04 05:54:50;;;;;;;9.13;6.65;;;;;;;14.59;90.71;99469.91;5118058;27;20190;-77
2021/10/04 05:57:17;;;;;;;9.02;6.15;;;;;;;14.45;91.89;99461.91;5118328;27;20194;-76
2021/10/04 05:59:43;;;;;;;7.65;6.47;;;;;;;14.56;91.49;99467.41;5119726;27;20254;-76
2021/10/04 06:02:10;;;;;;;9.73;8.75;;;;;;;14.52;90.92;99474.91;5118699;27;20191;-77
2021/10/04 06:04:36;;;;;;;7.20;6.40;;;;;;;14.63;90.64;99476.81;5125915;27;20203;-78
2021/10/04 06:07:03;;;;;;;11.38;6.95;;;;;;;14.76;89.52;99484.84;5116576;27;20208;-77
2021/10/04 06:09:30;;;;;;;7.68;6.90;;;;;;;14.75;89.56;99489.41;5118242;27;20241;-76
2021/10/04 06:11:58;;;;;;;6.15;5.40;;;;;;;14.69;89.88;99486.31;5118353;27;20472;-77
2021/10/04 06:14:26;;;;;;;6.10;5.50;;;;;;;14.64;90.61;99478.53;5126308;27;20182;-76
2021/10/04 06:16:55;;;;;;;5.10;4.60;;;;;;;14.74;89.38;99485.00;5112522;27;20565;-77
2021/10/04 06:19:22;;;;;;;5.07;4.15;;;;;;;14.73;89.67;99483.25;5117090;27;20214;-77
2021/10/04 06:21:48;;;;;;;4.25;3.85;;;;;;;14.66;89.58;99482.00;5121380;27;20597;-77
2021/10/04 06:24:15;;;;;;;4.95;4.55;;;;;;;14.66;89.84;99481.13;5115331;27;20300;-79
2021/10/04 06:26:41;;;;;;;4.05;3.75;;;;;;;14.51;90.63;99486.69;5111186;27;20208;-77
2021/10/04 06:29:09;;;;;;;5.43;4.93;;;;;;;14.59;90.50;99487.03;5108199;27;20233;-77
2021/10/04 06:31:36;;;;;;;9.52;6.85;;;;;;;14.66;90.22;99490.13;5113328;27;20201;-77
2021/10/04 06:34:03;;;;;;;4.85;4.35;;;;;;;14.73;89.06;99501.38;5108805;27;20286;-76
2021/10/04 06:36:29;;;;;;;5.00;4.55;;;;;;;14.66;90.23;99513.66;5113823;27;20285;-76
2021/10/04 06:38:56;;;;;;;5.18;4.68;;;;;;;14.70;89.45;99521.44;5118673;27;20276;-75
2021/10/04 06:41:23;;;;;;;4.43;4.00;;;;;;;14.64;89.91;99510.19;5110704;27;20189;-77
2021/10/04 06:43:50;;;;;;;15.65;6.03;;;;;;;14.78;89.87;99520.84;5109269;27;20204;-74
2021/10/04 06:46:18;;;;;;;4.97;4.40;;;;;;;14.72;89.90;99533.03;5114950;27;20193;-76
2021/10/04 06:48:44;;;;;;;4.53;3.67;;;;;;;14.75;90.00;99538.19;5108412;27;20189;-76
2021/10/04 06:51:11;;;;;;;3.78;3.47;;;;;;;14.83;89.98;99542.16;5112008;27;20288;-76
2021/10/04 06:53:37;;;;;;;3.60;3.28;;;;;;;14.88;88.86;99540.84;5109819;27;20182;-76
2021/10/04 06:56:04;;;;;;;4.82;3.60;;;;;;;15.03;87.17;99544.19;5110401;27;20289;-76
2021/10/04 06:58:31;;;;;;;4.57;3.65;;;;;;;14.82;88.55;99562.13;5110244;27;20560;-75
2021/10/04 07:00:58;;;;;;;5.78;4.80;;;;;;;14.83;89.45;99558.44;5116111;27;20197;-76
2021/10/04 07:03:25;;;;;;;4.45;3.45;;;;;;;15.03;87.55;99565.91;5108887;28;20187;-77
2021/10/04 07:05:53;;;;;;;4.40;4.00;;;;;;;15.03;87.05;99565.91;5110546;27;20650;-76
2021/10/04 07:08:19;;;;;;;3.10;2.90;;;;;;;14.97;87.90;99574.53;5116548;27;20187;-76
2021/10/04 07:10:46;;;;;;;5.40;3.80;;;;;;;15.07;88.07;99578.25;5113551;28;20206;-76
2021/10/04 07:13:13;;;;;;;6.05;3.72;;;;;;;15.13;86.53;99579.63;5113547;28;20198;-75
2021/10/04 07:15:39;;;;;;;3.03;2.60;;;;;;;15.25;86.32;99580.50;5109625;28;20241;-75
2021/10/04 07:18:06;;;;;;;2.90;2.70;;;;;;;15.19;86.72;99576.41;5110134;28;20282;-76
2021/10/04 07:20:34;;;;;;;2.70;2.40;;;;;;;15.19;86.34;99565.56;5110698;28;20290;-76
2021/10/04 07:23:02;;;;;;;3.40;3.10;;;;;;;15.08;86.11;99562.81;5108568;28;20201;-76
2021/10/04 07:25:29;;;;;;;2.38;2.10;;;;;;;15.18;86.00;99561.13;5113941;28;20194;-76
2021/10/04 07:27:56;;;;;;;5.15;2.67;;;;;;;15.24;86.76;99563.38;5113644;28;20277;-75
2021/10/04 07:30:22;;;;;;;4.57;4.18;;;;;;;15.33;86.88;99569.91;5110392;28;20205;-74
2021/10/04 07:32:49;;;;;;;3.63;2.83;;;;;;;15.39;86.61;99564.88;5109780;28;20209;-76
2021/10/04 07:35:16;;;;;;;5.75;3.90;;;;;;;15.30;87.78;99564.75;5109455;28;20191;-75
2021/10/04 07:37:44;;;;;;;4.15;2.63;;;;;;;15.41;86.96;99570.19;5113134;28;20192;-76
2021/10/04 07:40:12;;;;;;;2.88;2.03;;;;;;;15.32;87.25;99560.06;5113826;28;20194;-76
2021/10/04 07:42:41;;;;;;;3.35;3.05;;;;;;;15.38;87.67;99555.00;5114854;28;20194;-77
2021/10/04 07:45:08;;;;;;;1.80;1.70;;;;;;;15.32;87.93;99562.78;5112866;28;20223;-75
2021/10/04 07:47:34;;;;;;;7.18;2.25;;;;;;;15.28;88.18;99569.41;5113932;28;20266;-76
2021/10/04 07:50:01;;;;;;;2.72;2.35;;;;;;;15.22;89.47;99555.34;5114311;28;20672;-76
2021/10/04 07:52:28;;;;;;;2.85;2.55;;;;;;;15.31;89.06;99561.03;5111845;27;20183;-76
2021/10/04 07:54:56;;;;;;;3.83;2.50;;;;;;;15.51;88.72;99560.34;5113274;27;20195;-76
2021/10/04 07:57:23;;;;;;;2.13;1.92;;;;;;;15.60;86.05;99559.63;5113356;27;20195;-76
2021/10/04 07:59:49;;;;;;;6.20;3.38;;;;;;;15.78;85.88;99559.13;5115140;27;20180;-76
2021/10/04 08:02:16;;;;;;;3.55;2.60;;;;;;;15.78;85.93;99559.13;5118019;27;20198;-76
2021/10/04 08:04:43;;;;;;;3.10;2.30;;;;;;;15.71;86.53;99575.06;5117370;27;20221;-76
2021/10/04 08:07:09;;;;;;;2.20;2.00;;;;;;;15.82;85.80;99566.06;5117659;27;20193;-77
2021/10/04 08:09:36;;;;;;;3.78;3.38;;;;;;;15.86;86.31;99589.25;5111482;27;20301;-76
2021/10/04 08:12:04;;;;;;;6.32;5.25;;;;;;;15.87;85.04;99592.84;5117555;27;20198;-76
2021/10/04 08:14:31;;;;;;;2.47;2.10;;;;;;;15.83;85.05;99593.09;5115572;27;20182;-76
2021/10/04 08:17:00;;;;;;;4.35;3.40;;;;;;;15.69;86.05;99606.00;5113144;27;20295;-76
2021/10/04 08:19:27;;;;;;;12.95;9.40;;;;;;;15.74;86.67;99618.25;5113275;27;20191;-75
2021/10/04 08:21:54;;;;;;;22.35;15.82;;;;;;;15.68;87.66;99615.13;5113647;27;20207;-76
2021/10/04 08:24:21;;;;;;;3.10;2.40;;;;;;;15.82;85.14;99617.63;5117170;27;20210;-75
2021/10/04 08:26:48;;;;;;;33.28;23.10;;;;;;;15.68;84.86;99620.56;5112632;27;20629;-75
2021/10/04 08:29:17;;;;;;;62.53;44.10;;;;;;;15.54;85.29;99606.22;5118205;27;20214;-75
2021/10/04 08:31:43;;;;;;;2.95;2.65;;;;;;;15.58;85.10;99591.44;5120177;27;20274;-75
2021/10/04 08:34:10;;;;;;;2.10;1.90;;;;;;;15.62;84.37;99600.19;5116550;27;20192;-76
2021/10/04 08:36:37;;;;;;;2.85;2.50;;;;;;;15.77;83.95;99603.56;5121887;27;20191;-75
2021/10/04 08:39:05;;;;;;;9.32;7.13;;;;;;;15.73;84.26;99602.09;5122231;27;20293;-75
2021/10/04 08:41:34;;;;;;;3.30;2.72;;;;;;;15.77;84.42;99609.00;5114470;27;20213;-76
2021/10/04 08:44:04;;;;;;;5.00;4.05;;;;;;;15.80;85.15;99592.47;5117172;27;20196;-76
2021/10/04 08:46:37;;;;;;;8.35;6.43;;;;;;;15.97;82.84;99599.28;5114811;27;20199;-75
2021/10/04 08:49:04;;;;;;;7.95;5.20;;;;;;;15.89;83.22;99610.72;5121262;27;20187;-76
2021/10/04 08:51:30;;;;;;;9.88;6.20;;;;;;;15.84;84.08;99605.66;5115949;27;20210;-76
2021/10/04 08:53:57;;;;;;;6.53;4.65;;;;;;;15.93;83.50;99598.63;5117461;27;20194;-76
2021/10/04 08:56:24;;;;;;;2.70;2.15;;;;;;;16.23;81.41;99605.28;5114862;27;20195;-76
2021/10/04 08:58:50;;;;;;;4.10;3.10;;;;;;;16.35;80.57;99615.16;5119092;27;20209;-76
2021/10/04 09:01:21;;;;;;;7.72;5.15;;;;;;;16.50;80.41;99614.88;5116832;27;20555;-76
2021/10/04 09:03:50;;;;;;;2.50;2.15;;;;;;;16.66;79.27;99629.81;5116086;27;20278;-77
2021/10/04 09:06:28;;;;;;;2.08;1.88;;;;;;;16.69;76.87;99634.13;5114150;27;20183;-75
2021/10/04 09:08:56;;;;;;;2.28;2.08;;;;;;;16.66;76.83;99628.94;5112735;27;20199;-76
2021/10/04 09:11:31;;;;;;;3.97;2.70;;;;;;;16.66;77.82;99628.94;5112022;27;20212;-77
2021/10/04 09:14:07;;;;;;;6.15;5.22;;;;;;;16.58;77.14;99626.00;5122070;27;20186;-76
2021/10/04 09:16:53;;;;;;;4.57;3.85;;;;;;;16.49;76.62;99626.75;5110290;27;20209;-77
2021/10/04 09:19:23;;;;;;;4.85;3.90;;;;;;;16.64;76.68;99636.34;5115932;27;20190;-75
2021/10/04 09:22:12;;;;;;;1.45;1.30;;;;;;;16.67;75.71;99638.81;5110792;27;20629;-76
2021/10/04 09:24:42;;;;;;;3.80;3.53;;;;;;;16.67;75.36;99631.53;5116930;27;20191;-76
2021/10/04 09:27:26;;;;;;;9.07;6.45;;;;;;;16.67;75.77;99631.53;5114870;27;20187;-77
2021/10/04 09:29:53;;;;;;;4.78;2.88;;;;;;;16.83;75.14;99613.97;5109875;27;20223;-77
2021/10/04 09:32:24;;;;;;;2.90;2.50;;;;;;;17.03;74.90;99621.31;5115968;27;20179;-76
2021/10/04 09:35:11;;;;;;;3.58;3.28;;;;;;;17.06;73.65;99625.63;5113671;27;20196;-76
2021/10/04 09:37:38;;;;;;;1.30;1.20;;;;;;;17.06;72.12;99625.63;5111408;27;20208;-76
2021/10/04 09:40:06;;;;;;;3.47;3.17;;;;;;;17.21;72.75;99628.91;5118432;27;20191;-77
2021/10/04 09:42:38;;;;;;;4.30;2.55;;;;;;;17.32;71.69;99614.38;5108774;27;20184;-76
2021/10/04 09:45:07;;;;;;;16.00;12.85;;;;;;;17.47;72.09;99610.31;5118314;27;20661;-77
2021/10/04 09:47:35;;;;;;;3.30;2.30;;;;;;;17.72;69.62;99609.03;5117495;27;20252;-77
2021/10/04 09:50:07;;;;;;;2.22;1.60;;;;;;;17.92;69.10;99623.66;5113665;27;20302;-76
2021/10/04 09:52:36;;;;;;;2.70;2.00;;;;;;;17.94;68.57;99631.72;5115497;27;20311;-76
2021/10/04 09:55:13;;;;;;;2.60;2.30;;;;;;;18.07;68.28;99644.13;5108638;27;20284;-76
2021/10/04 09:57:40;;;;;;;2.95;2.42;;;;;;;18.02;68.08;99640.06;5107019;27;20229;-76
2021/10/04 10:00:08;;;;;;;22.15;15.52;;;;;;;18.12;67.89;99636.38;5118314;27;20188;-76
2021/10/04 10:02:35;;;;;;;19.80;15.30;;;;;;;18.03;68.27;99631.75;5111787;27;20320;-76
2021/10/04 10:05:01;;;;;;;9.07;6.50;;;;;;;18.04;67.60;99627.16;5115616;27;20224;-75
2021/10/04 10:07:29;;;;;;;2.25;1.95;;;;;;;17.98;65.92;99622.28;5112146;27;20196;-76
2021/10/04 10:09:57;;;;;;;4.68;2.00;;;;;;;17.82;67.02;99617.28;5113676;27;20228;-76
2021/10/04 10:12:24;;;;;;;1.85;1.50;;;;;;;17.72;67.00;99623.53;5111698;28;20282;-75
2021/10/04 10:14:51;;;;;;;2.05;1.73;;;;;;;17.69;67.29;99634.69;5111674;28;20248;-77
2021/10/04 10:17:23;;;;;;;1.40;1.30;;;;;;;17.54;67.30;99641.47;5112439;28;20184;-76
2021/10/04 10:19:52;;;;;;;7.50;5.35;;;;;;;17.42;67.99;99637.94;5112024;28;20199;-76
2021/10/04 10:22:20;;;;;;;2.42;1.63;;;;;;;17.67;67.34;99633.09;5111430;28;20198;-75
2021/10/04 10:24:50;;;;;;;10.88;8.40;;;;;;;17.74;67.36;99626.13;5112117;28;20195;-76
2021/10/04 10:27:17;;;;;;;3.33;2.05;;;;;;;17.90;65.83;99614.78;5111257;28;20237;-76
2021/10/04 10:29:44;;;;;;;1.67;1.50;;;;;;;17.99;64.59;99613.94;5112221;28;20690;-76
2021/10/04 10:32:20;;;;;;;8.65;6.95;;;;;;;18.10;64.58;99613.84;5112168;28;20187;-76
2021/10/04 10:34:57;;;;;;;4.57;1.75;;;;;;;18.25;63.35;99619.81;5113091;28;20188;-75
2021/10/04 10:37:29;;;;;;;6.93;5.15;;;;;;;18.28;63.97;99608.63;5109037;28;20705;-75
2021/10/04 10:39:59;;;;;;;2.15;1.40;;;;;;;18.38;63.06;99611.38;5111543;28;20197;-75
2021/10/04 10:42:28;;;;;;;3.05;2.75;;;;;;;18.51;63.26;99609.25;5112717;28;20191;-75
2021/10/04 10:45:12;;;;;;;4.68;2.70;;;;;;;18.84;62.29;99620.84;5113526;28;20204;-75
2021/10/04 10:47:56;;;;;;;2.85;2.53;;;;;;;18.76;62.17;99624.22;5113006;28;20184;-75
2021/10/04 10:50:44;;;;;;;1.95;1.75;;;;;;;18.58;62.62;99625.91;5112422;28;20220;-75
2021/10/04 10:53:20;;;;;;;3.17;1.80;;;;;;;18.67;62.52;99619.63;5099685;28;20181;-75
2021/10/04 10:55:55;;;;;;;2.63;1.45;;;;;;;18.55;63.42;99615.31;5112281;28;20281;-75
2021/10/04 10:58:27;;;;;;;3.35;2.53;;;;;;;18.57;63.08;99610.56;5112878;28;20189;-76
2021/10/04 11:01:15;;;;;;;4.22;1.25;;;;;;;18.57;62.23;99607.84;5109303;28;20225;-74
2021/10/04 11:04:00;;;;;;;4.55;2.53;;;;;;;18.65;61.84;99604.41;5112385;28;20267;-75
2021/10/04 11:06:41;;;;;;;4.22;3.40;;;;;;;18.83;61.85;99597.28;5113184;28;20547;-75
2021/10/04 11:09:08;;;;;;;1.67;1.40;;;;;;;19.04;59.95;99613.53;5112146;28;20182;-74
2021/10/04 11:11:37;;;;;;;2.50;2.05;;;;;;;19.04;59.49;99612.66;5112454;28;20213;-75
2021/10/04 11:14:09;;;;;;;5.68;1.60;;;;;;;18.96;60.23;99614.25;5112545;28;20200;-75
2021/10/04 11:16:38;;;;;;;2.67;2.20;;;;;;;18.92;60.94;99612.78;5112612;28;20235;-75
2021/10/04 11:19:06;;;;;;;2.75;1.50;;;;;;;18.75;60.67;99619.78;5112415;28;20200;-74
2021/10/04 11:21:34;;;;;;;2.55;1.70;;;;;;;18.65;61.32;99620.78;5112927;28;20274;-75
2021/10/04 11:24:03;;;;;;;2.47;1.48;;;;;;;18.84;60.54;99609.94;5113089;28;20204;-75
2021/10/04 11:26:34;;;;;;;3.20;1.45;;;;;;;18.82;59.94;99603.75;5112612;28;20197;-74
2021/10/04 11:29:05;;;;;;;2.90;1.67;;;;;;;18.91;59.49;99604.78;5094705;28;20238;-74
2021/10/04 11:31:33;;;;;;;1.95;1.60;;;;;;;19.08;58.67;99595.84;5096803;28;20556;-75
2021/10/04 11:34:03;;;;;;;2.28;1.45;;;;;;;19.32;58.01;99603.63;5096706;28;20201;-74
2021/10/04 11:36:31;;;;;;;2.05;1.65;;;;;;;19.44;57.79;99592.53;5097170;28;20489;-75